sensor_id;sensor_type;location;lat;lon;timestamp;P1;durP1;ratioP1;P2;durP2;ratioP2
27422;SDS011;14878;50.778;0.258;2022-08-03T00:00:57;19.63;;;10.60;;
27422;SDS011;14878;50.778;0.258;2022-08-03T00:02:00;22.98;;;11.02;;
27422;SDS011;14878;50.778;0.258;2022-08-03T00:03:03;27.80;;;11.18;;
27422;SDS011;14878;50.778;0.258;2022-08-03T00:04:04;27.17;;;12.00;;
27422;SDS011;14878;50.778;0.258;2022-08-03T00:05:05;27.27;;;12.00;;
27422;SDS011;14878;50.778;0.258;2022-08-03T00:06:07;26.02;;;11.63;;
27422;SDS011;14878;50.778;0.258;2022-08-03T00:07:08;30.38;;;12.13;;
27422;SDS011;14878;50.778;0.258;2022-08-03T00:08:09;26.10;;;12.03;;
27422;SDS011;14878;50.778;0.258;2022-08-03T00:09:10;34.50;;;11.65;;
27422;SDS011;14878;50.778;0.258;2022-08-03T00:10:11;26.35;;;10.35;;
27422;SDS011;14878;50.778;0.258;2022-08-03T00:11:13;24.92;;;10.85;;
27422;SDS011;14878;50.778;0.258;2022-08-03T00:12:13;27.85;;;10.20;;
27422;SDS011;14878;50.778;0.258;2022-08-03T00:13:14;21.50;;;9.20;;
27422;SDS011;14878;50.778;0.258;2022-08-03T00:14:15;22.55;;;9.70;;
27422;SDS011;14878;50.778;0.258;2022-08-03T00:15:16;22.53;;;9.93;;
27422;SDS011;14878;50.778;0.258;2022-08-03T00:16:17;19.23;;;9.50;;
27422;SDS011;14878;50.778;0.258;2022-08-03T00:17:18;21.77;;;9.57;;
27422;SDS011;14878;50.778;0.258;2022-08-03T00:18:18;23.02;;;8.75;;
27422;SDS011;14878;50.778;0.258;2022-08-03T00:19:19;20.07;;;9.20;;
27422;SDS011;14878;50.778;0.258;2022-08-03T00:20:20;22.25;;;9.50;;
27422;SDS011;14878;50.778;0.258;2022-08-03T00:21:21;25.60;;;9.77;;
27422;SDS011;14878;50.778;0.258;2022-08-03T00:22:22;18.75;;;8.88;;
27422;SDS011;14878;50.778;0.258;2022-08-03T00:23:23;19.90;;;8.87;;
27422;SDS011;14878;50.778;0.258;2022-08-03T00:24:23;26.02;;;9.23;;
27422;SDS011;14878;50.778;0.258;2022-08-03T00:25:24;18.83;;;8.38;;
27422;SDS011;14878;50.778;0.258;2022-08-03T00:26:25;18.83;;;8.52;;
27422;SDS011;14878;50.778;0.258;2022-08-03T00:27:26;22.10;;;8.23;;
27422;SDS011;14878;50.778;0.258;2022-08-03T00:28:27;19.52;;;8.35;;
27422;SDS011;14878;50.778;0.258;2022-08-03T00:29:27;19.00;;;8.38;;
27422;SDS011;14878;50.778;0.258;2022-08-03T00:30:28;22.87;;;9.33;;
27422;SDS011;14878;50.778;0.258;2022-08-03T00:31:29;21.75;;;9.18;;
27422;SDS011;14878;50.778;0.258;2022-08-03T00:32:30;19.08;;;8.10;;
27422;SDS011;14878;50.778;0.258;2022-08-03T00:33:31;26.08;;;8.73;;
27422;SDS011;14878;50.778;0.258;2022-08-03T00:34:32;20.50;;;9.15;;
27422;SDS011;14878;50.778;0.258;2022-08-03T00:35:32;18.88;;;8.25;;
27422;SDS011;14878;50.778;0.258;2022-08-03T00:36:33;24.50;;;8.87;;
27422;SDS011;14878;50.778;0.258;2022-08-03T00:37:34;20.75;;;9.02;;
27422;SDS011;14878;50.778;0.258;2022-08-03T00:38:35;21.48;;;8.75;;
27422;SDS011;14878;50.778;0.258;2022-08-03T00:39:36;22.33;;;8.90;;
27422;SDS011;14878;50.778;0.258;2022-08-03T00:40:36;19.52;;;8.55;;
27422;SDS011;14878;50.778;0.258;2022-08-03T00:41:37;21.17;;;8.70;;
27422;SDS011;14878;50.778;0.258;2022-08-03T00:42:54;24.80;;;9.45;;
27422;SDS011;14878;50.778;0.258;2022-08-03T00:43:56;22.63;;;10.10;;
27422;SDS011;14878;50.778;0.258;2022-08-03T00:44:57;22.10;;;9.65;;
27422;SDS011;14878;50.778;0.258;2022-08-03T00:45:58;19.60;;;8.37;;
27422;SDS011;14878;50.778;0.258;2022-08-03T00:46:59;21.27;;;9.00;;
27422;SDS011;14878;50.778;0.258;2022-08-03T00:48:00;23.48;;;9.88;;
27422;SDS011;14878;50.778;0.258;2022-08-03T00:49:01;20.90;;;9.30;;
27422;SDS011;14878;50.778;0.258;2022-08-03T00:50:02;19.90;;;8.80;;
27422;SDS011;14878;50.778;0.258;2022-08-03T00:51:03;20.60;;;9.40;;
27422;SDS011;14878;50.778;0.258;2022-08-03T00:52:05;28.17;;;11.05;;
27422;SDS011;14878;50.778;0.258;2022-08-03T00:53:10;20.13;;;8.90;;
27422;SDS011;14878;50.778;0.258;2022-08-03T00:54:13;23.77;;;9.85;;
27422;SDS011;14878;50.778;0.258;2022-08-03T00:55:15;19.83;;;9.18;;
27422;SDS011;14878;50.778;0.258;2022-08-03T00:56:16;22.30;;;9.65;;
27422;SDS011;14878;50.778;0.258;2022-08-03T00:57:17;21.23;;;10.10;;
27422;SDS011;14878;50.778;0.258;2022-08-03T00:58:20;22.48;;;10.68;;
27422;SDS011;14878;50.778;0.258;2022-08-03T00:59:23;24.00;;;10.65;;
27422;SDS011;14878;50.778;0.258;2022-08-03T01:00:24;24.80;;;10.07;;
27422;SDS011;14878;50.778;0.258;2022-08-03T01:01:26;22.75;;;10.02;;
27422;SDS011;14878;50.778;0.258;2022-08-03T01:02:27;22.00;;;9.57;;
27422;SDS011;14878;50.778;0.258;2022-08-03T01:03:28;22.85;;;8.98;;
27422;SDS011;14878;50.778;0.258;2022-08-03T01:04:29;18.20;;;9.33;;
27422;SDS011;14878;50.778;0.258;2022-08-03T01:05:32;23.63;;;9.38;;
27422;SDS011;14878;50.778;0.258;2022-08-03T01:06:44;20.70;;;8.65;;
27422;SDS011;14878;50.778;0.258;2022-08-03T01:07:59;21.23;;;8.55;;
27422;SDS011;14878;50.778;0.258;2022-08-03T01:13:26;25.25;;;8.73;;
27422;SDS011;14878;50.778;0.258;2022-08-03T01:16:59;18.02;;;9.00;;
27422;SDS011;14878;50.778;0.258;2022-08-03T01:18:21;17.67;;;8.02;;
27422;SDS011;14878;50.778;0.258;2022-08-03T01:19:44;19.42;;;8.35;;
27422;SDS011;14878;50.778;0.258;2022-08-03T01:20:54;21.08;;;8.13;;
27422;SDS011;14878;50.778;0.258;2022-08-03T01:30:16;17.08;;;7.70;;
27422;SDS011;14878;50.778;0.258;2022-08-03T01:31:19;18.27;;;8.20;;
27422;SDS011;14878;50.778;0.258;2022-08-03T01:32:24;19.63;;;8.52;;
27422;SDS011;14878;50.778;0.258;2022-08-03T01:33:45;18.60;;;8.30;;
27422;SDS011;14878;50.778;0.258;2022-08-03T01:35:10;20.88;;;8.48;;
27422;SDS011;14878;50.778;0.258;2022-08-03T01:36:25;18.63;;;8.50;;
27422;SDS011;14878;50.778;0.258;2022-08-03T01:37:35;14.55;;;7.60;;
27422;SDS011;14878;50.778;0.258;2022-08-03T01:38:42;17.20;;;8.07;;
27422;SDS011;14878;50.778;0.258;2022-08-03T01:39:47;18.33;;;7.80;;
27422;SDS011;14878;50.778;0.258;2022-08-03T01:40:51;16.43;;;8.00;;
27422;SDS011;14878;50.778;0.258;2022-08-03T01:41:55;16.55;;;7.88;;
27422;SDS011;14878;50.778;0.258;2022-08-03T01:42:59;14.48;;;7.40;;
27422;SDS011;14878;50.778;0.258;2022-08-03T01:44:02;17.40;;;8.07;;
27422;SDS011;14878;50.778;0.258;2022-08-03T01:45:07;19.70;;;7.97;;
27422;SDS011;14878;50.778;0.258;2022-08-03T01:46:11;21.10;;;8.23;;
27422;SDS011;14878;50.778;0.258;2022-08-03T01:47:13;22.77;;;7.90;;
27422;SDS011;14878;50.778;0.258;2022-08-03T01:48:18;18.33;;;7.50;;
27422;SDS011;14878;50.778;0.258;2022-08-03T01:49:19;17.08;;;7.22;;
27422;SDS011;14878;50.778;0.258;2022-08-03T01:50:21;14.02;;;7.80;;
27422;SDS011;14878;50.778;0.258;2022-08-03T01:51:25;18.33;;;7.63;;
27422;SDS011;14878;50.778;0.258;2022-08-03T01:52:29;16.73;;;7.23;;
27422;SDS011;14878;50.778;0.258;2022-08-03T01:53:30;20.83;;;8.00;;
27422;SDS011;14878;50.778;0.258;2022-08-03T01:54:36;20.55;;;7.32;;
27422;SDS011;14878;50.778;0.258;2022-08-03T01:55:43;16.08;;;6.95;;
27422;SDS011;14878;50.778;0.258;2022-08-03T01:56:46;14.52;;;6.95;;
27422;SDS011;14878;50.778;0.258;2022-08-03T01:57:49;16.38;;;6.45;;
27422;SDS011;14878;50.778;0.258;2022-08-03T01:58:53;15.98;;;6.35;;
27422;SDS011;14878;50.778;0.258;2022-08-03T01:59:55;19.83;;;6.97;;
27422;SDS011;14878;50.778;0.258;2022-08-03T02:00:59;20.08;;;7.32;;
27422;SDS011;14878;50.778;0.258;2022-08-03T02:02:02;19.67;;;6.00;;
27422;SDS011;14878;50.778;0.258;2022-08-03T02:03:05;23.85;;;6.85;;
27422;SDS011;14878;50.778;0.258;2022-08-03T02:04:06;21.65;;;6.72;;
27422;SDS011;14878;50.778;0.258;2022-08-03T02:05:08;16.70;;;6.65;;
27422;SDS011;14878;50.778;0.258;2022-08-03T02:06:11;19.80;;;6.53;;
27422;SDS011;14878;50.778;0.258;2022-08-03T02:07:13;17.42;;;6.10;;
27422;SDS011;14878;50.778;0.258;2022-08-03T02:08:15;16.42;;;5.90;;
27422;SDS011;14878;50.778;0.258;2022-08-03T02:09:19;19.75;;;6.40;;
27422;SDS011;14878;50.778;0.258;2022-08-03T02:10:21;16.30;;;6.15;;
27422;SDS011;14878;50.778;0.258;2022-08-03T02:11:24;16.30;;;5.43;;
27422;SDS011;14878;50.778;0.258;2022-08-03T02:12:26;14.68;;;5.55;;
27422;SDS011;14878;50.778;0.258;2022-08-03T02:13:28;16.05;;;5.28;;
27422;SDS011;14878;50.778;0.258;2022-08-03T02:14:32;14.63;;;5.22;;
27422;SDS011;14878;50.778;0.258;2022-08-03T02:15:34;15.05;;;5.32;;
27422;SDS011;14878;50.778;0.258;2022-08-03T02:16:36;17.40;;;5.35;;
27422;SDS011;14878;50.778;0.258;2022-08-03T02:17:37;18.90;;;5.40;;
27422;SDS011;14878;50.778;0.258;2022-08-03T02:18:40;18.80;;;5.70;;
27422;SDS011;14878;50.778;0.258;2022-08-03T02:19:42;17.13;;;5.15;;
27422;SDS011;14878;50.778;0.258;2022-08-03T02:20:43;13.55;;;5.20;;
27422;SDS011;14878;50.778;0.258;2022-08-03T02:21:45;13.52;;;5.47;;
27422;SDS011;14878;50.778;0.258;2022-08-03T02:22:46;13.48;;;4.80;;
27422;SDS011;14878;50.778;0.258;2022-08-03T02:23:47;20.10;;;5.27;;
27422;SDS011;14878;50.778;0.258;2022-08-03T02:24:49;17.30;;;5.03;;
27422;SDS011;14878;50.778;0.258;2022-08-03T02:25:51;12.23;;;4.57;;
27422;SDS011;14878;50.778;0.258;2022-08-03T02:26:56;14.85;;;4.68;;
27422;SDS011;14878;50.778;0.258;2022-08-03T02:28:00;11.75;;;4.38;;
27422;SDS011;14878;50.778;0.258;2022-08-03T02:29:14;12.65;;;4.15;;
27422;SDS011;14878;50.778;0.258;2022-08-03T02:30:20;13.32;;;4.20;;
27422;SDS011;14878;50.778;0.258;2022-08-03T02:31:26;14.55;;;4.90;;
27422;SDS011;14878;50.778;0.258;2022-08-03T02:32:36;15.07;;;5.15;;
27422;SDS011;14878;50.778;0.258;2022-08-03T02:33:51;18.27;;;5.82;;
27422;SDS011;14878;50.778;0.258;2022-08-03T02:34:55;11.63;;;4.05;;
27422;SDS011;14878;50.778;0.258;2022-08-03T02:35:58;13.75;;;5.05;;
27422;SDS011;14878;50.778;0.258;2022-08-03T02:37:00;17.20;;;4.35;;
27422;SDS011;14878;50.778;0.258;2022-08-03T02:38:04;13.00;;;4.50;;
27422;SDS011;14878;50.778;0.258;2022-08-03T02:39:09;13.50;;;4.47;;
27422;SDS011;14878;50.778;0.258;2022-08-03T02:40:12;13.48;;;4.22;;
27422;SDS011;14878;50.778;0.258;2022-08-03T02:41:15;13.18;;;4.00;;
27422;SDS011;14878;50.778;0.258;2022-08-03T02:42:20;11.65;;;4.55;;
27422;SDS011;14878;50.778;0.258;2022-08-03T02:43:22;12.73;;;4.60;;
27422;SDS011;14878;50.778;0.258;2022-08-03T02:44:24;14.63;;;4.30;;
27422;SDS011;14878;50.778;0.258;2022-08-03T02:45:26;13.77;;;4.47;;
27422;SDS011;14878;50.778;0.258;2022-08-03T02:46:32;14.20;;;4.43;;
27422;SDS011;14878;50.778;0.258;2022-08-03T02:47:35;11.03;;;4.43;;
27422;SDS011;14878;50.778;0.258;2022-08-03T02:48:40;18.17;;;4.00;;
27422;SDS011;14878;50.778;0.258;2022-08-03T02:49:42;13.80;;;4.93;;
27422;SDS011;14878;50.778;0.258;2022-08-03T02:50:46;14.07;;;4.25;;
27422;SDS011;14878;50.778;0.258;2022-08-03T02:51:48;11.45;;;4.00;;
27422;SDS011;14878;50.778;0.258;2022-08-03T02:52:52;13.02;;;4.32;;
27422;SDS011;14878;50.778;0.258;2022-08-03T02:53:56;11.00;;;4.03;;
27422;SDS011;14878;50.778;0.258;2022-08-03T02:55:02;12.77;;;4.13;;
27422;SDS011;14878;50.778;0.258;2022-08-03T02:56:04;14.55;;;4.10;;
27422;SDS011;14878;50.778;0.258;2022-08-03T02:57:08;18.35;;;4.20;;
27422;SDS011;14878;50.778;0.258;2022-08-03T02:58:11;16.08;;;3.97;;
27422;SDS011;14878;50.778;0.258;2022-08-03T02:59:13;14.52;;;4.10;;
27422;SDS011;14878;50.778;0.258;2022-08-03T03:00:17;15.82;;;3.90;;
27422;SDS011;14878;50.778;0.258;2022-08-03T03:01:19;15.30;;;4.53;;
27422;SDS011;14878;50.778;0.258;2022-08-03T03:02:22;12.75;;;4.20;;
27422;SDS011;14878;50.778;0.258;2022-08-03T03:03:24;14.73;;;4.43;;
27422;SDS011;14878;50.778;0.258;2022-08-03T03:04:26;18.50;;;4.35;;
27422;SDS011;14878;50.778;0.258;2022-08-03T03:05:28;16.05;;;4.28;;
27422;SDS011;14878;50.778;0.258;2022-08-03T03:06:30;15.73;;;4.38;;
27422;SDS011;14878;50.778;0.258;2022-08-03T03:07:32;14.75;;;4.50;;
27422;SDS011;14878;50.778;0.258;2022-08-03T03:08:35;12.10;;;3.90;;
27422;SDS011;14878;50.778;0.258;2022-08-03T03:09:36;13.00;;;3.80;;
27422;SDS011;14878;50.778;0.258;2022-08-03T03:10:37;16.57;;;4.37;;
27422;SDS011;14878;50.778;0.258;2022-08-03T03:11:40;11.23;;;3.60;;
27422;SDS011;14878;50.778;0.258;2022-08-03T03:12:43;17.15;;;3.80;;
27422;SDS011;14878;50.778;0.258;2022-08-03T03:13:45;12.70;;;3.88;;
27422;SDS011;14878;50.778;0.258;2022-08-03T03:14:50;13.35;;;4.40;;
27422;SDS011;14878;50.778;0.258;2022-08-03T03:15:51;14.77;;;4.20;;
27422;SDS011;14878;50.778;0.258;2022-08-03T03:16:53;15.95;;;4.72;;
27422;SDS011;14878;50.778;0.258;2022-08-03T03:17:55;13.35;;;4.18;;
27422;SDS011;14878;50.778;0.258;2022-08-03T03:18:57;12.65;;;3.70;;
27422;SDS011;14878;50.778;0.258;2022-08-03T03:20:00;14.13;;;4.05;;
27422;SDS011;14878;50.778;0.258;2022-08-03T03:21:03;11.48;;;3.70;;
27422;SDS011;14878;50.778;0.258;2022-08-03T03:22:04;15.07;;;4.22;;
27422;SDS011;14878;50.778;0.258;2022-08-03T03:23:07;10.95;;;3.80;;
27422;SDS011;14878;50.778;0.258;2022-08-03T03:24:09;11.32;;;4.07;;
27422;SDS011;14878;50.778;0.258;2022-08-03T03:25:10;10.20;;;3.90;;
27422;SDS011;14878;50.778;0.258;2022-08-03T03:26:12;14.25;;;3.88;;
27422;SDS011;14878;50.778;0.258;2022-08-03T03:27:14;15.52;;;4.70;;
27422;SDS011;14878;50.778;0.258;2022-08-03T03:28:15;12.80;;;3.60;;
27422;SDS011;14878;50.778;0.258;2022-08-03T03:29:16;18.85;;;4.55;;
27422;SDS011;14878;50.778;0.258;2022-08-03T03:30:17;15.23;;;4.47;;
27422;SDS011;14878;50.778;0.258;2022-08-03T03:31:18;12.65;;;3.60;;
27422;SDS011;14878;50.778;0.258;2022-08-03T03:32:18;14.37;;;4.20;;
27422;SDS011;14878;50.778;0.258;2022-08-03T03:33:20;15.60;;;4.15;;
27422;SDS011;14878;50.778;0.258;2022-08-03T03:34:21;13.43;;;3.70;;
27422;SDS011;14878;50.778;0.258;2022-08-03T03:35:23;14.23;;;4.00;;
27422;SDS011;14878;50.778;0.258;2022-08-03T03:36:24;12.25;;;4.05;;
27422;SDS011;14878;50.778;0.258;2022-08-03T03:37:25;12.23;;;3.77;;
27422;SDS011;14878;50.778;0.258;2022-08-03T03:38:26;17.97;;;4.10;;
27422;SDS011;14878;50.778;0.258;2022-08-03T03:39:27;14.45;;;3.85;;
27422;SDS011;14878;50.778;0.258;2022-08-03T03:40:28;9.80;;;3.60;;
27422;SDS011;14878;50.778;0.258;2022-08-03T03:41:29;14.73;;;4.80;;
27422;SDS011;14878;50.778;0.258;2022-08-03T03:42:30;16.98;;;4.22;;
27422;SDS011;14878;50.778;0.258;2022-08-03T03:43:31;14.73;;;4.30;;
27422;SDS011;14878;50.778;0.258;2022-08-03T03:44:33;13.38;;;4.00;;
27422;SDS011;14878;50.778;0.258;2022-08-03T03:45:34;15.07;;;4.45;;
27422;SDS011;14878;50.778;0.258;2022-08-03T03:46:35;14.63;;;3.88;;
27422;SDS011;14878;50.778;0.258;2022-08-03T03:47:38;16.40;;;4.03;;
27422;SDS011;14878;50.778;0.258;2022-08-03T03:48:39;13.32;;;4.38;;
27422;SDS011;14878;50.778;0.258;2022-08-03T03:49:39;17.35;;;4.28;;
27422;SDS011;14878;50.778;0.258;2022-08-03T03:50:42;16.30;;;4.25;;
27422;SDS011;14878;50.778;0.258;2022-08-03T03:51:43;16.95;;;4.15;;
27422;SDS011;14878;50.778;0.258;2022-08-03T03:52:44;15.50;;;5.03;;
27422;SDS011;14878;50.778;0.258;2022-08-03T03:53:55;13.52;;;3.75;;
27422;SDS011;14878;50.778;0.258;2022-08-03T03:54:57;12.20;;;4.40;;
27422;SDS011;14878;50.778;0.258;2022-08-03T03:55:58;17.23;;;4.55;;
27422;SDS011;14878;50.778;0.258;2022-08-03T03:56:59;15.70;;;4.10;;
27422;SDS011;14878;50.778;0.258;2022-08-03T03:58:00;14.30;;;4.18;;
27422;SDS011;14878;50.778;0.258;2022-08-03T03:59:02;15.40;;;4.55;;
27422;SDS011;14878;50.778;0.258;2022-08-03T04:00:04;11.43;;;3.90;;
27422;SDS011;14878;50.778;0.258;2022-08-03T04:01:05;14.32;;;3.72;;
27422;SDS011;14878;50.778;0.258;2022-08-03T04:02:08;14.25;;;4.20;;
27422;SDS011;14878;50.778;0.258;2022-08-03T04:03:09;11.23;;;3.80;;
27422;SDS011;14878;50.778;0.258;2022-08-03T04:04:11;14.88;;;4.30;;
27422;SDS011;14878;50.778;0.258;2022-08-03T04:05:31;10.98;;;4.07;;
27422;SDS011;14878;50.778;0.258;2022-08-03T04:06:51;11.48;;;3.95;;
27422;SDS011;14878;50.778;0.258;2022-08-03T04:08:13;8.93;;;3.35;;
27422;SDS011;14878;50.778;0.258;2022-08-03T04:09:35;11.00;;;3.42;;
27422;SDS011;14878;50.778;0.258;2022-08-03T04:12:04;14.70;;;3.97;;
27422;SDS011;14878;50.778;0.258;2022-08-03T04:13:08;16.55;;;4.72;;
27422;SDS011;14878;50.778;0.258;2022-08-03T04:14:24;10.43;;;3.60;;
27422;SDS011;14878;50.778;0.258;2022-08-03T04:15:28;9.05;;;3.42;;
27422;SDS011;14878;50.778;0.258;2022-08-03T04:16:39;13.57;;;3.60;;
27422;SDS011;14878;50.778;0.258;2022-08-03T04:17:44;10.43;;;3.78;;
27422;SDS011;14878;50.778;0.258;2022-08-03T04:18:46;11.95;;;4.10;;
27422;SDS011;14878;50.778;0.258;2022-08-03T04:19:51;13.65;;;4.22;;
27422;SDS011;14878;50.778;0.258;2022-08-03T04:20:53;10.10;;;3.92;;
27422;SDS011;14878;50.778;0.258;2022-08-03T04:21:57;18.17;;;4.50;;
27422;SDS011;14878;50.778;0.258;2022-08-03T04:23:00;13.13;;;4.43;;
27422;SDS011;14878;50.778;0.258;2022-08-03T04:24:03;12.38;;;3.75;;
27422;SDS011;14878;50.778;0.258;2022-08-03T04:25:08;11.52;;;4.10;;
27422;SDS011;14878;50.778;0.258;2022-08-03T04:26:14;12.65;;;4.10;;
27422;SDS011;14878;50.778;0.258;2022-08-03T04:27:22;12.68;;;4.03;;
27422;SDS011;14878;50.778;0.258;2022-08-03T04:28:27;16.45;;;4.22;;
27422;SDS011;14878;50.778;0.258;2022-08-03T04:29:30;9.65;;;4.70;;
27422;SDS011;14878;50.778;0.258;2022-08-03T04:30:35;16.75;;;4.40;;
27422;SDS011;14878;50.778;0.258;2022-08-03T04:31:38;12.85;;;4.00;;
27422;SDS011;14878;50.778;0.258;2022-08-03T04:32:40;16.45;;;4.40;;
27422;SDS011;14878;50.778;0.258;2022-08-03T04:33:44;17.65;;;4.22;;
27422;SDS011;14878;50.778;0.258;2022-08-03T04:34:45;18.25;;;3.95;;
27422;SDS011;14878;50.778;0.258;2022-08-03T04:35:46;10.00;;;4.07;;
27422;SDS011;14878;50.778;0.258;2022-08-03T04:36:48;13.27;;;4.07;;
27422;SDS011;14878;50.778;0.258;2022-08-03T04:37:58;19.03;;;5.40;;
27422;SDS011;14878;50.778;0.258;2022-08-03T04:39:03;15.00;;;4.15;;
27422;SDS011;14878;50.778;0.258;2022-08-03T04:40:08;12.30;;;4.45;;
27422;SDS011;14878;50.778;0.258;2022-08-03T04:41:13;12.98;;;4.25;;
27422;SDS011;14878;50.778;0.258;2022-08-03T04:42:15;13.15;;;4.25;;
27422;SDS011;14878;50.778;0.258;2022-08-03T04:43:20;14.80;;;4.40;;
27422;SDS011;14878;50.778;0.258;2022-08-03T04:44:22;16.08;;;4.93;;
27422;SDS011;14878;50.778;0.258;2022-08-03T04:45:24;9.93;;;4.05;;
27422;SDS011;14878;50.778;0.258;2022-08-03T04:46:31;17.10;;;4.20;;
27422;SDS011;14878;50.778;0.258;2022-08-03T04:47:34;13.43;;;4.30;;
27422;SDS011;14878;50.778;0.258;2022-08-03T04:48:37;16.27;;;4.13;;
27422;SDS011;14878;50.778;0.258;2022-08-03T04:49:38;14.27;;;4.18;;
27422;SDS011;14878;50.778;0.258;2022-08-03T04:50:40;15.48;;;4.35;;
27422;SDS011;14878;50.778;0.258;2022-08-03T04:51:41;14.68;;;4.05;;
27422;SDS011;14878;50.778;0.258;2022-08-03T04:52:42;18.70;;;4.28;;
27422;SDS011;14878;50.778;0.258;2022-08-03T04:53:43;16.40;;;4.30;;
27422;SDS011;14878;50.778;0.258;2022-08-03T04:54:44;18.77;;;4.40;;
27422;SDS011;14878;50.778;0.258;2022-08-03T04:55:45;14.38;;;4.55;;
27422;SDS011;14878;50.778;0.258;2022-08-03T04:56:46;11.35;;;3.70;;
27422;SDS011;14878;50.778;0.258;2022-08-03T04:57:47;11.50;;;3.92;;
27422;SDS011;14878;50.778;0.258;2022-08-03T04:58:48;12.57;;;3.97;;
27422;SDS011;14878;50.778;0.258;2022-08-03T04:59:50;13.60;;;3.80;;
27422;SDS011;14878;50.778;0.258;2022-08-03T05:00:53;19.35;;;4.57;;
27422;SDS011;14878;50.778;0.258;2022-08-03T05:01:54;18.87;;;4.23;;
27422;SDS011;14878;50.778;0.258;2022-08-03T05:02:54;11.90;;;4.18;;
27422;SDS011;14878;50.778;0.258;2022-08-03T05:03:55;15.10;;;4.15;;
27422;SDS011;14878;50.778;0.258;2022-08-03T05:04:57;15.45;;;4.47;;
27422;SDS011;14878;50.778;0.258;2022-08-03T05:05:58;13.93;;;4.00;;
27422;SDS011;14878;50.778;0.258;2022-08-03T05:06:59;16.42;;;4.10;;
27422;SDS011;14878;50.778;0.258;2022-08-03T05:07:59;15.77;;;4.33;;
27422;SDS011;14878;50.778;0.258;2022-08-03T05:09:00;11.43;;;4.15;;
27422;SDS011;14878;50.778;0.258;2022-08-03T05:10:02;16.63;;;4.07;;
27422;SDS011;14878;50.778;0.258;2022-08-03T05:11:07;14.25;;;3.90;;
27422;SDS011;14878;50.778;0.258;2022-08-03T05:12:08;14.43;;;4.53;;
27422;SDS011;14878;50.778;0.258;2022-08-03T05:13:09;13.82;;;4.05;;
27422;SDS011;14878;50.778;0.258;2022-08-03T05:14:12;15.25;;;4.20;;
27422;SDS011;14878;50.778;0.258;2022-08-03T05:15:13;18.40;;;4.10;;
27422;SDS011;14878;50.778;0.258;2022-08-03T05:16:14;11.82;;;3.83;;
27422;SDS011;14878;50.778;0.258;2022-08-03T05:17:15;17.13;;;4.38;;
27422;SDS011;14878;50.778;0.258;2022-08-03T05:18:16;13.25;;;4.03;;
27422;SDS011;14878;50.778;0.258;2022-08-03T05:19:16;19.33;;;4.10;;
27422;SDS011;14878;50.778;0.258;2022-08-03T05:20:17;18.97;;;4.77;;
27422;SDS011;14878;50.778;0.258;2022-08-03T05:21:18;14.90;;;4.18;;
27422;SDS011;14878;50.778;0.258;2022-08-03T05:22:19;12.55;;;3.90;;
27422;SDS011;14878;50.778;0.258;2022-08-03T05:23:20;15.03;;;4.37;;
27422;SDS011;14878;50.778;0.258;2022-08-03T05:24:21;13.77;;;3.95;;
27422;SDS011;14878;50.778;0.258;2022-08-03T05:25:22;15.45;;;4.38;;
27422;SDS011;14878;50.778;0.258;2022-08-03T05:26:23;15.98;;;4.15;;
27422;SDS011;14878;50.778;0.258;2022-08-03T05:27:24;14.13;;;3.80;;
27422;SDS011;14878;50.778;0.258;2022-08-03T05:28:25;14.48;;;3.85;;
27422;SDS011;14878;50.778;0.258;2022-08-03T05:29:26;14.55;;;4.45;;
27422;SDS011;14878;50.778;0.258;2022-08-03T05:30:27;10.20;;;4.03;;
27422;SDS011;14878;50.778;0.258;2022-08-03T05:31:27;11.77;;;3.88;;
27422;SDS011;14878;50.778;0.258;2022-08-03T05:32:28;13.50;;;4.03;;
27422;SDS011;14878;50.778;0.258;2022-08-03T05:33:29;18.10;;;4.47;;
27422;SDS011;14878;50.778;0.258;2022-08-03T05:34:30;13.23;;;4.30;;
27422;SDS011;14878;50.778;0.258;2022-08-03T05:35:31;16.42;;;4.22;;
27422;SDS011;14878;50.778;0.258;2022-08-03T05:36:34;15.15;;;4.60;;
27422;SDS011;14878;50.778;0.258;2022-08-03T05:37:35;14.38;;;4.55;;
27422;SDS011;14878;50.778;0.258;2022-08-03T05:38:36;10.88;;;4.10;;
27422;SDS011;14878;50.778;0.258;2022-08-03T05:39:37;16.67;;;4.70;;
27422;SDS011;14878;50.778;0.258;2022-08-03T05:40:37;8.83;;;3.87;;
27422;SDS011;14878;50.778;0.258;2022-08-03T05:41:38;15.10;;;4.00;;
27422;SDS011;14878;50.778;0.258;2022-08-03T05:42:39;15.32;;;4.60;;
27422;SDS011;14878;50.778;0.258;2022-08-03T05:43:40;16.23;;;4.20;;
27422;SDS011;14878;50.778;0.258;2022-08-03T05:44:41;13.10;;;4.40;;
27422;SDS011;14878;50.778;0.258;2022-08-03T05:45:42;14.15;;;4.82;;
27422;SDS011;14878;50.778;0.258;2022-08-03T05:46:42;13.13;;;4.53;;
27422;SDS011;14878;50.778;0.258;2022-08-03T05:47:43;19.75;;;4.78;;
27422;SDS011;14878;50.778;0.258;2022-08-03T05:48:45;19.13;;;5.03;;
27422;SDS011;14878;50.778;0.258;2022-08-03T05:49:45;15.35;;;4.82;;
27422;SDS011;14878;50.778;0.258;2022-08-03T05:50:46;17.80;;;5.33;;
27422;SDS011;14878;50.778;0.258;2022-08-03T05:51:47;13.80;;;4.65;;
27422;SDS011;14878;50.778;0.258;2022-08-03T05:52:48;14.95;;;5.15;;
27422;SDS011;14878;50.778;0.258;2022-08-03T05:53:49;19.17;;;5.82;;
27422;SDS011;14878;50.778;0.258;2022-08-03T05:54:49;15.07;;;5.30;;
27422;SDS011;14878;50.778;0.258;2022-08-03T05:55:50;15.98;;;5.45;;
27422;SDS011;14878;50.778;0.258;2022-08-03T05:56:51;11.70;;;5.03;;
27422;SDS011;14878;50.778;0.258;2022-08-03T05:57:52;10.17;;;4.87;;
27422;SDS011;14878;50.778;0.258;2022-08-03T05:58:52;17.92;;;5.63;;
27422;SDS011;14878;50.778;0.258;2022-08-03T05:59:53;18.58;;;5.95;;
27422;SDS011;14878;50.778;0.258;2022-08-03T06:00:54;13.50;;;4.95;;
27422;SDS011;14878;50.778;0.258;2022-08-03T06:01:55;19.03;;;5.60;;
27422;SDS011;14878;50.778;0.258;2022-08-03T06:02:56;19.10;;;5.85;;
27422;SDS011;14878;50.778;0.258;2022-08-03T06:03:56;14.13;;;5.45;;
27422;SDS011;14878;50.778;0.258;2022-08-03T06:04:57;14.10;;;5.60;;
27422;SDS011;14878;50.778;0.258;2022-08-03T06:05:58;14.63;;;5.53;;
27422;SDS011;14878;50.778;0.258;2022-08-03T06:06:59;18.17;;;5.78;;
27422;SDS011;14878;50.778;0.258;2022-08-03T06:07:59;15.13;;;5.55;;
27422;SDS011;14878;50.778;0.258;2022-08-03T06:09:00;13.63;;;5.67;;
27422;SDS011;14878;50.778;0.258;2022-08-03T06:10:01;17.02;;;5.43;;
27422;SDS011;14878;50.778;0.258;2022-08-03T06:11:03;14.00;;;4.95;;
27422;SDS011;14878;50.778;0.258;2022-08-03T06:12:04;17.95;;;5.55;;
27422;SDS011;14878;50.778;0.258;2022-08-03T06:13:05;15.52;;;5.38;;
27422;SDS011;14878;50.778;0.258;2022-08-03T06:14:06;12.40;;;5.65;;
27422;SDS011;14878;50.778;0.258;2022-08-03T06:15:07;16.55;;;5.63;;
27422;SDS011;14878;50.778;0.258;2022-08-03T06:16:08;16.35;;;5.70;;
27422;SDS011;14878;50.778;0.258;2022-08-03T06:17:09;17.67;;;5.90;;
27422;SDS011;14878;50.778;0.258;2022-08-03T06:18:10;14.32;;;5.45;;
27422;SDS011;14878;50.778;0.258;2022-08-03T06:19:11;13.60;;;5.00;;
27422;SDS011;14878;50.778;0.258;2022-08-03T06:20:12;18.35;;;5.47;;
27422;SDS011;14878;50.778;0.258;2022-08-03T06:21:14;18.30;;;5.50;;
27422;SDS011;14878;50.778;0.258;2022-08-03T06:22:15;15.63;;;5.23;;
27422;SDS011;14878;50.778;0.258;2022-08-03T06:23:16;17.08;;;5.20;;
27422;SDS011;14878;50.778;0.258;2022-08-03T06:24:17;16.75;;;4.90;;
27422;SDS011;14878;50.778;0.258;2022-08-03T06:25:17;12.93;;;4.70;;
27422;SDS011;14878;50.778;0.258;2022-08-03T06:26:19;18.65;;;5.13;;
27422;SDS011;14878;50.778;0.258;2022-08-03T06:27:20;15.90;;;5.30;;
27422;SDS011;14878;50.778;0.258;2022-08-03T06:28:20;18.25;;;4.45;;
27422;SDS011;14878;50.778;0.258;2022-08-03T06:29:21;14.27;;;4.57;;